Glenelg, Maryland
Current Conditions -  °F | °C
As of 6:55 PM on Wednesday 22 Oct 2014 (Local Time) from KGAI Reporting Station
Broken Clouds Broken Clouds  
Wind Chill: 12°   Ceiling: 5000
Heat Index: 12°   Visibility: 10mi
Dew Point:   Wind: 8mph
Humidity: 77%   Direction: 320°NW
Pressure: 29.98"   Gusts: NA
Location:  39.26°N, 77°W
Report Text: KGAI 222255Z 32007KT 10SM SCT036 BKN050 12/08 A2998 RMK AO1
Loading
Personal Weather Stations






























Interactive Weather Map
Tropical Storm Tracking
New forecast layout! Learn more

10-Day Weather Forecast

Advertisements
Track Severe Weather on mobile